sensor_id;sensor_type;location;lat;lon;timestamp;pressure;altitude;pressure_sealevel;temperature;humidity
62592;BME280;48659;41.622;2.276;2023-02-21T00:02:25;100593.44;;;6.56;61.64
62592;BME280;48659;41.622;2.276;2023-02-21T00:04:53;100592.22;;;6.08;63.36
62592;BME280;48659;41.622;2.276;2023-02-21T00:07:20;100586.85;;;5.41;66.79
62592;BME280;48659;41.622;2.276;2023-02-21T00:09:48;100584.36;;;5.43;65.09
62592;BME280;48659;41.622;2.276;2023-02-21T00:12:15;100580.79;;;4.63;69.35
62592;BME280;48659;41.622;2.276;2023-02-21T00:14:43;100577.46;;;5.05;67.26
62592;BME280;48659;41.622;2.276;2023-02-21T00:17:11;100565.84;;;7.40;61.77
62592;BME280;48659;41.622;2.276;2023-02-21T00:19:38;100566.64;;;6.16;62.37
62592;BME280;48659;41.622;2.276;2023-02-21T00:22:07;100560.33;;;7.48;59.58
62592;BME280;48659;41.622;2.276;2023-02-21T00:24:35;100558.05;;;7.41;57.69
62592;BME280;48659;41.622;2.276;2023-02-21T00:27:04;100557.03;;;8.52;56.45
62592;BME280;48659;41.622;2.276;2023-02-21T00:29:31;100549.19;;;7.99;55.99
62592;BME280;48659;41.622;2.276;2023-02-21T00:31:58;100548.75;;;8.75;54.86
62592;BME280;48659;41.622;2.276;2023-02-21T00:34:26;100554.94;;;7.79;57.33
62592;BME280;48659;41.622;2.276;2023-02-21T00:36:53;100553.77;;;8.47;55.53
62592;BME280;48659;41.622;2.276;2023-02-21T00:39:21;100554.99;;;8.74;54.76
62592;BME280;48659;41.622;2.276;2023-02-21T00:41:49;100548.56;;;8.94;54.38
62592;BME280;48659;41.622;2.276;2023-02-21T00:44:16;100547.96;;;8.67;55.17
62592;BME280;48659;41.622;2.276;2023-02-21T00:46:43;100545.28;;;8.42;55.25
62592;BME280;48659;41.622;2.276;2023-02-21T00:49:11;100539.04;;;8.72;54.74
62592;BME280;48659;41.622;2.276;2023-02-21T00:51:38;100539.64;;;8.63;54.34
62592;BME280;48659;41.622;2.276;2023-02-21T00:54:05;100536.06;;;8.45;54.52
62592;BME280;48659;41.622;2.276;2023-02-21T00:56:33;100531.87;;;8.62;53.96
62592;BME280;48659;41.622;2.276;2023-02-21T00:59:03;100539.51;;;7.32;57.00
62592;BME280;48659;41.622;2.276;2023-02-21T01:01:30;100533.63;;;7.71;55.17
62592;BME280;48659;41.622;2.276;2023-02-21T01:03:58;100529.76;;;9.49;52.68
62592;BME280;48659;41.622;2.276;2023-02-21T01:06:31;100531.80;;;7.97;54.21
62592;BME280;48659;41.622;2.276;2023-02-21T01:08:58;100526.70;;;8.43;54.03
62592;BME280;48659;41.622;2.276;2023-02-21T01:11:25;100525.39;;;8.41;54.39
62592;BME280;48659;41.622;2.276;2023-02-21T01:13:53;100526.43;;;8.05;54.77
62592;BME280;48659;41.622;2.276;2023-02-21T01:16:21;100519.72;;;8.18;55.19
62592;BME280;48659;41.622;2.276;2023-02-21T01:18:48;100520.55;;;7.73;56.48
62592;BME280;48659;41.622;2.276;2023-02-21T01:21:17;100516.97;;;7.83;57.19
62592;BME280;48659;41.622;2.276;2023-02-21T01:23:45;100512.04;;;8.15;56.15
62592;BME280;48659;41.622;2.276;2023-02-21T01:26:13;100515.85;;;6.66;60.55
62592;BME280;48659;41.622;2.276;2023-02-21T01:28:40;100513.26;;;7.15;59.17
62592;BME280;48659;41.622;2.276;2023-02-21T01:31:07;100515.71;;;7.09;59.92
62592;BME280;48659;41.622;2.276;2023-02-21T01:33:36;100515.18;;;5.88;62.06
62592;BME280;48659;41.622;2.276;2023-02-21T01:36:05;100514.57;;;6.65;61.84
62592;BME280;48659;41.622;2.276;2023-02-21T01:38:33;100516.35;;;7.48;58.92
62592;BME280;48659;41.622;2.276;2023-02-21T01:41:01;100506.04;;;7.76;58.28
62592;BME280;48659;41.622;2.276;2023-02-21T01:43:28;100503.33;;;7.83;58.59
62592;BME280;48659;41.622;2.276;2023-02-21T01:45:56;100499.56;;;8.33;58.22
62592;BME280;48659;41.622;2.276;2023-02-21T01:48:24;100501.10;;;8.23;58.40
62592;BME280;48659;41.622;2.276;2023-02-21T01:50:53;100501.27;;;8.50;57.55
62592;BME280;48659;41.622;2.276;2023-02-21T01:53:24;100501.42;;;8.70;57.12
62592;BME280;48659;41.622;2.276;2023-02-21T01:55:54;100501.03;;;8.21;56.67
62592;BME280;48659;41.622;2.276;2023-02-21T01:58:36;100503.06;;;8.29;56.67
62592;BME280;48659;41.622;2.276;2023-02-21T02:01:04;100500.75;;;8.27;55.67
62592;BME280;48659;41.622;2.276;2023-02-21T02:03:33;100497.48;;;8.12;55.98
62592;BME280;48659;41.622;2.276;2023-02-21T02:06:03;100496.73;;;9.12;54.56
62592;BME280;48659;41.622;2.276;2023-02-21T02:08:31;100499.37;;;9.42;54.00
62592;BME280;48659;41.622;2.276;2023-02-21T02:11:06;100491.50;;;9.14;55.02
62592;BME280;48659;41.622;2.276;2023-02-21T02:13:51;100485.71;;;8.99;55.05
62592;BME280;48659;41.622;2.276;2023-02-21T02:16:29;100486.20;;;9.76;54.07
62592;BME280;48659;41.622;2.276;2023-02-21T02:22:12;100480.14;;;9.17;53.20
62592;BME280;48659;41.622;2.276;2023-02-21T02:24:57;100471.06;;;8.15;54.61
62592;BME280;48659;41.622;2.276;2023-02-21T02:35:14;100470.80;;;8.56;58.17
62592;BME280;48659;41.622;2.276;2023-02-21T02:37:50;100475.28;;;5.56;64.10
62592;BME280;48659;41.622;2.276;2023-02-21T02:40:26;100472.19;;;4.51;68.12
62592;BME280;48659;41.622;2.276;2023-02-21T02:43:02;100473.05;;;5.00;69.56
62592;BME280;48659;41.622;2.276;2023-02-21T02:45:41;100475.18;;;4.51;69.17
62592;BME280;48659;41.622;2.276;2023-02-21T02:48:15;100472.89;;;4.34;69.73
62592;BME280;48659;41.622;2.276;2023-02-21T02:50:46;100462.11;;;6.30;64.71
62592;BME280;48659;41.622;2.276;2023-02-21T02:53:16;100463.19;;;6.09;65.40
62592;BME280;48659;41.622;2.276;2023-02-21T02:55:49;100461.93;;;5.21;65.55
62592;BME280;48659;41.622;2.276;2023-02-21T02:58:19;100456.72;;;5.47;64.84
62592;BME280;48659;41.622;2.276;2023-02-21T03:00:56;100447.80;;;5.82;62.85
62592;BME280;48659;41.622;2.276;2023-02-21T03:03:44;100438.24;;;6.81;60.21
62592;BME280;48659;41.622;2.276;2023-02-21T03:06:18;100428.44;;;7.55;58.58
62592;BME280;48659;41.622;2.276;2023-02-21T03:08:56;100424.86;;;7.71;57.27
62592;BME280;48659;41.622;2.276;2023-02-21T03:11:37;100421.75;;;7.36;56.72
62592;BME280;48659;41.622;2.276;2023-02-21T03:14:11;100417.43;;;8.14;55.44
62592;BME280;48659;41.622;2.276;2023-02-21T03:16:44;100417.43;;;7.88;56.04
62592;BME280;48659;41.622;2.276;2023-02-21T03:19:16;100426.21;;;6.49;58.15
62592;BME280;48659;41.622;2.276;2023-02-21T03:21:48;100417.40;;;7.75;56.02
62592;BME280;48659;41.622;2.276;2023-02-21T03:24:18;100410.59;;;7.95;55.70
62592;BME280;48659;41.622;2.276;2023-02-21T03:26:50;100409.12;;;7.54;56.59
62592;BME280;48659;41.622;2.276;2023-02-21T03:29:20;100406.07;;;7.78;57.10
62592;BME280;48659;41.622;2.276;2023-02-21T03:31:53;100397.04;;;7.31;58.04
62592;BME280;48659;41.622;2.276;2023-02-21T03:34:22;100395.52;;;7.14;57.87
62592;BME280;48659;41.622;2.276;2023-02-21T03:36:50;100392.71;;;6.74;59.42
62592;BME280;48659;41.622;2.276;2023-02-21T03:39:17;100392.85;;;5.33;63.67
62592;BME280;48659;41.622;2.276;2023-02-21T03:41:44;100386.53;;;5.53;65.46
62592;BME280;48659;41.622;2.276;2023-02-21T03:44:12;100384.71;;;7.11;60.34
62592;BME280;48659;41.622;2.276;2023-02-21T03:46:39;100386.01;;;7.51;58.37
62592;BME280;48659;41.622;2.276;2023-02-21T03:49:07;100384.95;;;7.58;57.26
62592;BME280;48659;41.622;2.276;2023-02-21T03:51:35;100383.44;;;7.37;57.62
62592;BME280;48659;41.622;2.276;2023-02-21T03:54:02;100382.39;;;7.80;56.91
62592;BME280;48659;41.622;2.276;2023-02-21T03:56:29;100379.92;;;7.15;56.58
62592;BME280;48659;41.622;2.276;2023-02-21T03:58:57;100371.63;;;7.77;56.32
62592;BME280;48659;41.622;2.276;2023-02-21T04:01:24;100369.23;;;7.75;56.19
62592;BME280;48659;41.622;2.276;2023-02-21T04:03:51;100373.76;;;7.49;57.06
62592;BME280;48659;41.622;2.276;2023-02-21T04:06:19;100370.05;;;7.88;55.84
62592;BME280;48659;41.622;2.276;2023-02-21T04:08:46;100375.73;;;6.93;58.18
62592;BME280;48659;41.622;2.276;2023-02-21T04:11:17;100372.88;;;7.35;56.52
62592;BME280;48659;41.622;2.276;2023-02-21T04:13:44;100369.44;;;7.54;56.02
62592;BME280;48659;41.622;2.276;2023-02-21T04:16:12;100376.00;;;7.14;56.93
62592;BME280;48659;41.622;2.276;2023-02-21T04:18:39;100372.93;;;7.40;56.27
62592;BME280;48659;41.622;2.276;2023-02-21T04:21:07;100371.09;;;7.79;56.15
62592;BME280;48659;41.622;2.276;2023-02-21T04:23:35;100369.90;;;7.99;56.10
62592;BME280;48659;41.622;2.276;2023-02-21T04:26:02;100371.41;;;7.95;57.23
62592;BME280;48659;41.622;2.276;2023-02-21T04:28:30;100372.01;;;6.95;58.78
62592;BME280;48659;41.622;2.276;2023-02-21T04:30:57;100370.59;;;7.71;57.45
62592;BME280;48659;41.622;2.276;2023-02-21T04:33:24;100369.78;;;7.57;56.07
62592;BME280;48659;41.622;2.276;2023-02-21T04:35:51;100368.24;;;7.37;55.35
62592;BME280;48659;41.622;2.276;2023-02-21T04:38:19;100367.47;;;7.60;55.78
62592;BME280;48659;41.622;2.276;2023-02-21T04:40:47;100369.95;;;5.55;60.87
62592;BME280;48659;41.622;2.276;2023-02-21T04:43:15;100363.67;;;6.64;61.05
62592;BME280;48659;41.622;2.276;2023-02-21T04:45:42;100360.05;;;5.66;62.72
62592;BME280;48659;41.622;2.276;2023-02-21T04:48:10;100370.18;;;4.33;66.40
62592;BME280;48659;41.622;2.276;2023-02-21T04:50:37;100360.02;;;5.93;61.61
62592;BME280;48659;41.622;2.276;2023-02-21T04:53:04;100361.24;;;4.97;65.29
62592;BME280;48659;41.622;2.276;2023-02-21T04:55:32;100366.24;;;4.27;67.28
62592;BME280;48659;41.622;2.276;2023-02-21T04:57:59;100360.81;;;4.40;68.22
62592;BME280;48659;41.622;2.276;2023-02-21T05:00:29;100356.81;;;4.96;67.97
62592;BME280;48659;41.622;2.276;2023-02-21T05:02:57;100347.82;;;5.78;64.79
62592;BME280;48659;41.622;2.276;2023-02-21T05:05:24;100350.13;;;6.05;61.80
62592;BME280;48659;41.622;2.276;2023-02-21T05:07:51;100349.51;;;6.53;60.85
62592;BME280;48659;41.622;2.276;2023-02-21T05:10:19;100348.60;;;7.07;59.35
62592;BME280;48659;41.622;2.276;2023-02-21T05:12:46;100355.09;;;6.70;59.30
62592;BME280;48659;41.622;2.276;2023-02-21T05:15:15;100356.64;;;7.15;58.58
62592;BME280;48659;41.622;2.276;2023-02-21T05:17:43;100354.72;;;7.17;57.95
62592;BME280;48659;41.622;2.276;2023-02-21T05:20:10;100351.15;;;7.18;58.26
62592;BME280;48659;41.622;2.276;2023-02-21T05:22:38;100350.15;;;7.38;57.05
62592;BME280;48659;41.622;2.276;2023-02-21T05:25:06;100356.16;;;7.43;57.11
62592;BME280;48659;41.622;2.276;2023-02-21T05:27:33;100357.55;;;7.38;57.43
62592;BME280;48659;41.622;2.276;2023-02-21T05:30:01;100356.25;;;6.95;58.79
62592;BME280;48659;41.622;2.276;2023-02-21T05:32:29;100346.24;;;7.06;56.79
62592;BME280;48659;41.622;2.276;2023-02-21T05:34:56;100350.94;;;7.36;57.21
62592;BME280;48659;41.622;2.276;2023-02-21T05:37:23;100347.34;;;7.45;56.20
62592;BME280;48659;41.622;2.276;2023-02-21T05:39:51;100339.99;;;7.74;54.69
62592;BME280;48659;41.622;2.276;2023-02-21T05:42:18;100342.85;;;6.13;59.26
62592;BME280;48659;41.622;2.276;2023-02-21T05:44:46;100344.74;;;4.79;62.35
62592;BME280;48659;41.622;2.276;2023-02-21T05:47:14;100347.60;;;4.20;66.48
62592;BME280;48659;41.622;2.276;2023-02-21T05:49:43;100346.51;;;3.52;68.11
62592;BME280;48659;41.622;2.276;2023-02-21T05:52:11;100342.29;;;5.88;65.23
62592;BME280;48659;41.622;2.276;2023-02-21T05:54:40;100352.26;;;4.68;64.68
62592;BME280;48659;41.622;2.276;2023-02-21T05:57:07;100357.66;;;6.21;63.92
62592;BME280;48659;41.622;2.276;2023-02-21T05:59:36;100343.90;;;6.38;61.25
62592;BME280;48659;41.622;2.276;2023-02-21T06:02:04;100340.60;;;5.63;62.70
62592;BME280;48659;41.622;2.276;2023-02-21T06:04:31;100353.58;;;3.41;70.70
62592;BME280;48659;41.622;2.276;2023-02-21T06:06:59;100358.04;;;5.85;64.45
62592;BME280;48659;41.622;2.276;2023-02-21T06:09:27;100356.95;;;6.72;60.93
62592;BME280;48659;41.622;2.276;2023-02-21T06:11:55;100343.99;;;7.04;59.45
62592;BME280;48659;41.622;2.276;2023-02-21T06:14:23;100344.99;;;7.58;57.62
62592;BME280;48659;41.622;2.276;2023-02-21T06:16:53;100340.34;;;7.91;56.23
62592;BME280;48659;41.622;2.276;2023-02-21T06:19:21;100339.62;;;7.94;56.02
62592;BME280;48659;41.622;2.276;2023-02-21T06:21:50;100335.97;;;6.48;58.69
62592;BME280;48659;41.622;2.276;2023-02-21T06:24:17;100341.79;;;5.03;65.05
62592;BME280;48659;41.622;2.276;2023-02-21T06:26:45;100340.71;;;5.33;64.09
62592;BME280;48659;41.622;2.276;2023-02-21T06:29:12;100346.25;;;6.45;61.64
62592;BME280;48659;41.622;2.276;2023-02-21T06:31:41;100351.37;;;7.04;58.81
62592;BME280;48659;41.622;2.276;2023-02-21T06:34:10;100346.87;;;8.20;55.97
62592;BME280;48659;41.622;2.276;2023-02-21T06:36:39;100350.53;;;7.82;56.45
62592;BME280;48659;41.622;2.276;2023-02-21T06:39:06;100351.59;;;7.34;57.60
62592;BME280;48659;41.622;2.276;2023-02-21T06:41:33;100345.14;;;7.67;55.70
62592;BME280;48659;41.622;2.276;2023-02-21T06:44:01;100347.20;;;7.24;57.36
62592;BME280;48659;41.622;2.276;2023-02-21T06:46:35;100350.06;;;7.30;57.07
62592;BME280;48659;41.622;2.276;2023-02-21T06:49:03;100347.48;;;5.64;63.40
62592;BME280;48659;41.622;2.276;2023-02-21T06:51:37;100344.86;;;6.22;63.67
62592;BME280;48659;41.622;2.276;2023-02-21T06:54:06;100350.91;;;5.49;64.88
62592;BME280;48659;41.622;2.276;2023-02-21T06:56:34;100351.47;;;7.17;61.07
62592;BME280;48659;41.622;2.276;2023-02-21T06:59:02;100347.76;;;7.87;58.37
62592;BME280;48659;41.622;2.276;2023-02-21T07:01:30;100345.32;;;7.90;57.26
62592;BME280;48659;41.622;2.276;2023-02-21T07:03:57;100344.75;;;7.70;57.62
62592;BME280;48659;41.622;2.276;2023-02-21T07:06:25;100351.80;;;6.82;60.46
62592;BME280;48659;41.622;2.276;2023-02-21T07:08:53;100356.51;;;6.62;61.26
62592;BME280;48659;41.622;2.276;2023-02-21T07:11:21;100359.22;;;7.16;59.18
62592;BME280;48659;41.622;2.276;2023-02-21T07:13:49;100366.72;;;7.52;58.50
62592;BME280;48659;41.622;2.276;2023-02-21T07:16:18;100362.53;;;7.75;58.36
62592;BME280;48659;41.622;2.276;2023-02-21T07:18:46;100368.47;;;6.53;59.56
62592;BME280;48659;41.622;2.276;2023-02-21T07:21:16;100363.22;;;7.67;58.04
62592;BME280;48659;41.622;2.276;2023-02-21T07:23:44;100362.32;;;8.70;55.71
62592;BME280;48659;41.622;2.276;2023-02-21T07:26:13;100359.06;;;7.89;57.52
62592;BME280;48659;41.622;2.276;2023-02-21T07:28:41;100356.10;;;7.65;56.49
62592;BME280;48659;41.622;2.276;2023-02-21T07:31:09;100367.95;;;7.55;56.49
62592;BME280;48659;41.622;2.276;2023-02-21T07:33:36;100378.84;;;8.50;56.04
62592;BME280;48659;41.622;2.276;2023-02-21T07:36:04;100375.58;;;8.17;55.20
62592;BME280;48659;41.622;2.276;2023-02-21T07:38:32;100383.10;;;7.78;55.37
62592;BME280;48659;41.622;2.276;2023-02-21T07:41:01;100377.08;;;8.45;54.08
62592;BME280;48659;41.622;2.276;2023-02-21T07:43:30;100379.78;;;8.49;54.39
62592;BME280;48659;41.622;2.276;2023-02-21T07:45:59;100387.17;;;8.72;54.22
62592;BME280;48659;41.622;2.276;2023-02-21T07:48:40;100396.73;;;8.44;54.15
62592;BME280;48659;41.622;2.276;2023-02-21T07:51:08;100389.59;;;9.08;53.52
62592;BME280;48659;41.622;2.276;2023-02-21T07:53:36;100379.46;;;8.50;54.99
62592;BME280;48659;41.622;2.276;2023-02-21T07:56:04;100377.43;;;9.54;53.85
62592;BME280;48659;41.622;2.276;2023-02-21T07:58:31;100374.11;;;9.38;53.33
62592;BME280;48659;41.622;2.276;2023-02-21T08:00:59;100378.32;;;9.54;54.08
62592;BME280;48659;41.622;2.276;2023-02-21T08:03:28;100377.22;;;9.82;54.74
62592;BME280;48659;41.622;2.276;2023-02-21T08:05:56;100378.30;;;9.81;54.59
62592;BME280;48659;41.622;2.276;2023-02-21T08:08:23;100371.91;;;10.21;53.28
62592;BME280;48659;41.622;2.276;2023-02-21T08:10:51;100364.85;;;10.22;53.74
62592;BME280;48659;41.622;2.276;2023-02-21T08:13:18;100355.14;;;10.25;53.03
62592;BME280;48659;41.622;2.276;2023-02-21T08:15:46;100345.32;;;10.18;53.27
62592;BME280;48659;41.622;2.276;2023-02-21T08:18:15;100356.49;;;9.36;55.96
62592;BME280;48659;41.622;2.276;2023-02-21T08:20:43;100366.06;;;9.32;56.28
62592;BME280;48659;41.622;2.276;2023-02-21T08:23:10;100357.64;;;9.84;54.31
62592;BME280;48659;41.622;2.276;2023-02-21T08:25:37;100360.44;;;9.96;53.87
62592;BME280;48659;41.622;2.276;2023-02-21T08:28:05;100359.22;;;10.18;52.57
62592;BME280;48659;41.622;2.276;2023-02-21T08:30:33;100363.80;;;10.26;53.09
62592;BME280;48659;41.622;2.276;2023-02-21T08:33:00;100354.36;;;11.09;51.19
62592;BME280;48659;41.622;2.276;2023-02-21T08:35:28;100360.06;;;11.10;50.72
62592;BME280;48659;41.622;2.276;2023-02-21T08:37:56;100366.55;;;11.23;53.45
62592;BME280;48659;41.622;2.276;2023-02-21T08:40:23;100366.37;;;10.61;52.07
62592;BME280;48659;41.622;2.276;2023-02-21T08:42:53;100362.59;;;11.51;50.91
62592;BME280;48659;41.622;2.276;2023-02-21T08:45:22;100358.79;;;11.90;49.56
62592;BME280;48659;41.622;2.276;2023-02-21T08:47:51;100352.18;;;11.64;51.26
62592;BME280;48659;41.622;2.276;2023-02-21T08:50:21;100348.01;;;11.40;50.45
62592;BME280;48659;41.622;2.276;2023-02-21T08:52:50;100345.27;;;11.17;50.11
62592;BME280;48659;41.622;2.276;2023-02-21T08:55:19;100337.22;;;11.67;50.09
62592;BME280;48659;41.622;2.276;2023-02-21T08:57:50;100331.30;;;12.02;48.65
62592;BME280;48659;41.622;2.276;2023-02-21T09:00:21;100325.05;;;11.96;48.23
62592;BME280;48659;41.622;2.276;2023-02-21T09:02:50;100318.00;;;12.24;47.68
62592;BME280;48659;41.622;2.276;2023-02-21T09:05:21;100316.18;;;10.77;46.96
62592;BME280;48659;41.622;2.276;2023-02-21T09:07:50;100312.94;;;11.56;47.07
62592;BME280;48659;41.622;2.276;2023-02-21T09:10:18;100317.10;;;12.62;44.40
62592;BME280;48659;41.622;2.276;2023-02-21T09:12:45;100313.34;;;12.38;45.52
62592;BME280;48659;41.622;2.276;2023-02-21T09:15:14;100313.44;;;12.74;44.72
62592;BME280;48659;41.622;2.276;2023-02-21T09:17:42;100316.83;;;12.85;44.17
62592;BME280;48659;41.622;2.276;2023-02-21T09:20:15;100317.92;;;13.45;44.86
62592;BME280;48659;41.622;2.276;2023-02-21T09:22:44;100318.86;;;13.10;45.13
62592;BME280;48659;41.622;2.276;2023-02-21T09:25:15;100313.89;;;13.71;43.69
62592;BME280;48659;41.622;2.276;2023-02-21T09:27:44;100308.46;;;13.27;43.31
62592;BME280;48659;41.622;2.276;2023-02-21T09:30:14;100300.67;;;14.06;42.00
62592;BME280;48659;41.622;2.276;2023-02-21T09:32:42;100303.18;;;13.89;42.44
62592;BME280;48659;41.622;2.276;2023-02-21T09:35:12;100303.36;;;14.08;41.72
62592;BME280;48659;41.622;2.276;2023-02-21T09:37:41;100309.33;;;14.00;41.50
62592;BME280;48659;41.622;2.276;2023-02-21T09:40:15;100308.62;;;14.18;40.41
62592;BME280;48659;41.622;2.276;2023-02-21T09:42:43;100299.34;;;14.40;39.24
62592;BME280;48659;41.622;2.276;2023-02-21T09:45:14;100296.65;;;14.56;39.37
62592;BME280;48659;41.622;2.276;2023-02-21T09:47:43;100294.00;;;14.48;38.71
62592;BME280;48659;41.622;2.276;2023-02-21T09:50:17;100283.54;;;14.80;39.35
62592;BME280;48659;41.622;2.276;2023-02-21T09:52:46;100278.60;;;14.69;41.00
62592;BME280;48659;41.622;2.276;2023-02-21T09:55:21;100279.95;;;14.79;42.19
62592;BME280;48659;41.622;2.276;2023-02-21T09:57:53;100283.07;;;15.05;40.46
62592;BME280;48659;41.622;2.276;2023-02-21T10:00:23;100277.60;;;14.96;39.76
62592;BME280;48659;41.622;2.276;2023-02-21T10:02:59;100277.41;;;15.12;38.54
62592;BME280;48659;41.622;2.276;2023-02-21T10:05:38;100281.05;;;14.57;38.03
62592;BME280;48659;41.622;2.276;2023-02-21T10:08:15;100273.61;;;15.06;37.49
62592;BME280;48659;41.622;2.276;2023-02-21T10:10:46;100269.21;;;14.77;38.35
62592;BME280;48659;41.622;2.276;2023-02-21T10:13:26;100272.32;;;15.33;37.79
62592;BME280;48659;41.622;2.276;2023-02-21T10:16:02;100261.04;;;15.85;38.05
62592;BME280;48659;41.622;2.276;2023-02-21T10:18:36;100255.81;;;15.47;38.65
62592;BME280;48659;41.622;2.276;2023-02-21T10:21:13;100260.81;;;15.51;39.67
62592;BME280;48659;41.622;2.276;2023-02-21T10:23:44;100259.88;;;14.70;41.57
62592;BME280;48659;41.622;2.276;2023-02-21T10:26:15;100266.42;;;14.92;40.94
62592;BME280;48659;41.622;2.276;2023-02-21T10:28:45;100273.98;;;14.43;41.10
62592;BME280;48659;41.622;2.276;2023-02-21T10:31:17;100276.02;;;12.88;44.80
62592;BME280;48659;41.622;2.276;2023-02-21T10:33:45;100267.27;;;14.53;42.19
62592;BME280;48659;41.622;2.276;2023-02-21T10:36:17;100267.87;;;14.63;42.55
62592;BME280;48659;41.622;2.276;2023-02-21T10:38:53;100266.29;;;14.33;42.64
62592;BME280;48659;41.622;2.276;2023-02-21T10:41:23;100268.24;;;14.82;41.57
62592;BME280;48659;41.622;2.276;2023-02-21T10:44:00;100262.23;;;14.43;42.39
62592;BME280;48659;41.622;2.276;2023-02-21T10:46:38;100254.08;;;15.00;40.59
62592;BME280;48659;41.622;2.276;2023-02-21T10:49:21;100251.24;;;15.36;38.77
62592;BME280;48659;41.622;2.276;2023-02-21T10:52:03;100250.94;;;16.24;39.89
62592;BME280;48659;41.622;2.276;2023-02-21T10:54:31;100247.38;;;16.33;35.43
62592;BME280;48659;41.622;2.276;2023-02-21T10:57:00;100242.17;;;16.23;33.16
62592;BME280;48659;41.622;2.276;2023-02-21T10:59:33;100237.12;;;16.45;29.59
62592;BME280;48659;41.622;2.276;2023-02-21T11:02:02;100233.27;;;17.13;29.82
62592;BME280;48659;41.622;2.276;2023-02-21T11:04:30;100226.69;;;15.46;34.27
62592;BME280;48659;41.622;2.276;2023-02-21T11:07:01;100228.01;;;16.40;31.28
62592;BME280;48659;41.622;2.276;2023-02-21T11:09:35;100217.12;;;16.85;27.18
62592;BME280;48659;41.622;2.276;2023-02-21T11:12:11;100211.54;;;17.53;27.10
62592;BME280;48659;41.622;2.276;2023-02-21T11:15:02;100212.22;;;17.43;25.95
62592;BME280;48659;41.622;2.276;2023-02-21T11:17:31;100210.45;;;16.90;25.35
62592;BME280;48659;41.622;2.276;2023-02-21T11:20:09;100201.38;;;17.41;25.49
62592;BME280;48659;41.622;2.276;2023-02-21T11:22:43;100199.53;;;16.28;26.62
62592;BME280;48659;41.622;2.276;2023-02-21T11:25:20;100184.45;;;17.35;25.25
62592;BME280;48659;41.622;2.276;2023-02-21T11:28:16;100181.45;;;17.72;23.97
62592;BME280;48659;41.622;2.276;2023-02-21T11:30:49;100179.23;;;17.60;25.76
62592;BME280;48659;41.622;2.276;2023-02-21T11:33:19;100185.43;;;16.18;25.27
62592;BME280;48659;41.622;2.276;2023-02-21T11:35:49;100182.41;;;16.57;24.94
62592;BME280;48659;41.622;2.276;2023-02-21T11:38:36;100174.90;;;15.81;26.29
62592;BME280;48659;41.622;2.276;2023-02-21T11:41:16;100168.82;;;16.36;26.10
62592;BME280;48659;41.622;2.276;2023-02-21T11:43:47;100162.30;;;17.19;26.16
62592;BME280;48659;41.622;2.276;2023-02-21T11:46:20;100157.71;;;17.37;25.56
62592;BME280;48659;41.622;2.276;2023-02-21T11:48:58;100156.43;;;17.73;25.61
62592;BME280;48659;41.622;2.276;2023-02-21T11:51:33;100155.85;;;18.08;25.10
62592;BME280;48659;41.622;2.276;2023-02-21T11:54:05;100150.31;;;17.78;25.94
62592;BME280;48659;41.622;2.276;2023-02-21T11:56:43;100145.10;;;17.79;25.98
62592;BME280;48659;41.622;2.276;2023-02-21T11:59:24;100141.49;;;18.05;26.36
62592;BME280;48659;41.622;2.276;2023-02-21T12:02:13;100141.94;;;17.62;26.75
62592;BME280;48659;41.622;2.276;2023-02-21T12:04:54;100135.48;;;17.13;27.06
62592;BME280;48659;41.622;2.276;2023-02-21T12:07:33;100132.69;;;17.17;26.89
62592;BME280;48659;41.622;2.276;2023-02-21T12:10:12;100126.83;;;16.86;28.16
62592;BME280;48659;41.622;2.276;2023-02-21T12:12:56;100123.67;;;17.71;27.06
62592;BME280;48659;41.622;2.276;2023-02-21T12:15:33;100115.58;;;18.02;26.87
62592;BME280;48659;41.622;2.276;2023-02-21T12:18:18;100109.19;;;18.47;26.47
62592;BME280;48659;41.622;2.276;2023-02-21T12:21:02;100099.57;;;19.11;26.03
62592;BME280;48659;41.622;2.276;2023-02-21T12:23:37;100096.30;;;17.74;27.09
62592;BME280;48659;41.622;2.276;2023-02-21T12:26:26;100091.25;;;18.14;25.84
62592;BME280;48659;41.622;2.276;2023-02-21T12:29:11;100081.09;;;17.81;26.04
62592;BME280;48659;41.622;2.276;2023-02-21T12:31:52;100079.38;;;16.96;27.01
62592;BME280;48659;41.622;2.276;2023-02-21T12:34:53;100069.87;;;18.52;25.48
62592;BME280;48659;41.622;2.276;2023-02-21T12:37:29;100069.62;;;18.24;25.12
62592;BME280;48659;41.622;2.276;2023-02-21T12:40:09;100063.06;;;19.03;24.05
62592;BME280;48659;41.622;2.276;2023-02-21T12:42:57;100064.32;;;17.73;25.41
62592;BME280;48659;41.622;2.276;2023-02-21T12:45:47;100058.17;;;17.94;24.82
62592;BME280;48659;41.622;2.276;2023-02-21T12:48:24;100052.13;;;18.56;24.72
62592;BME280;48659;41.622;2.276;2023-02-21T12:50:56;100052.35;;;18.66;24.31
62592;BME280;48659;41.622;2.276;2023-02-21T12:53:29;100052.00;;;18.98;24.23
62592;BME280;48659;41.622;2.276;2023-02-21T12:56:04;100042.98;;;19.03;24.52
62592;BME280;48659;41.622;2.276;2023-02-21T12:58:39;100036.25;;;18.50;24.38
62592;BME280;48659;41.622;2.276;2023-02-21T13:01:11;100031.78;;;19.00;24.21
62592;BME280;48659;41.622;2.276;2023-02-21T13:03:47;100030.77;;;18.01;24.52
62592;BME280;48659;41.622;2.276;2023-02-21T13:06:22;100025.87;;;17.87;25.48
62592;BME280;48659;41.622;2.276;2023-02-21T13:08:59;100016.90;;;18.82;24.56
62592;BME280;48659;41.622;2.276;2023-02-21T13:11:34;100015.92;;;18.59;24.51
62592;BME280;48659;41.622;2.276;2023-02-21T13:14:08;100009.63;;;18.79;24.25
62592;BME280;48659;41.622;2.276;2023-02-21T13:16:38;100013.57;;;19.00;25.04
62592;BME280;48659;41.622;2.276;2023-02-21T13:19:08;100002.78;;;19.77;23.48
62592;BME280;48659;41.622;2.276;2023-02-21T13:21:49;100007.64;;;19.68;24.65
62592;BME280;48659;41.622;2.276;2023-02-21T13:24:44;100002.42;;;18.91;24.98
62592;BME280;48659;41.622;2.276;2023-02-21T13:27:31;99997.62;;;19.80;23.33